Nearby Weather Observations


KTIP - Rantoul, Illinois, USA
Distance from station: ENE 12mi, 19km
Updated: Wed, 15-Aug-2018 7:55pm CDT
Mostly cloudy
Mostly cloudy
 Wind from S
Wind: S 5 mph , 7 km/h
Temperature: 73°F , 23°C
Dew Point: 73°F , 23°C
Humidity: 100%
Barometer: 29.93 inHg , 1013.5 hPa
Clouds: Mostly cloudy
Visibility: 7 miles , 11 km
Cloud details: Partly cloudy 2600 ft
Partly cloudy 3400 ft
Mostly cloudy 4300 ft
2018/08/16 00:55 KTIP 160055Z AUTO 18004KT 7SM SCT026 SCT034 BKN043 23/23 A2993 RMK AO2 T02300228
KCMI - Champaign/Urbana, Illinois, USA
Distance from station: SSE 14mi, 22km
Updated: Wed, 15-Aug-2018 7:53pm CDT
Heavy rain, Mist, Overcast
Heavy rain, Mist, Overcast
 Wind from E
Wind: E 9 mph , 15 km/h
Temperature: 72°F , 22°C
Dew Point: 72°F , 22°C
Humidity: 100%
Barometer: 29.91 inHg , 1012.9 hPa
Summary: Heavy rain, Mist
Clouds: Overcast
Visibility: 1 mile , 2 km
Cloud details: Few Clouds 1600 ft
Mostly cloudy 2500 ft
Overcast 3600 ft
2018/08/16 00:53 KCMI 160053Z 09008KT 1SM R32R/P6000FT +RA BR FEW016 BKN025 OVC036 22/22 A2991 RMK AO2 SFC VIS 1 1/2 VIS 1V2 1/2 SLP124 P0074 T02220222
 
KBMI - Bloomington/Norm, Illinois, USA
Distance from station: WNW 34mi, 55km
Updated: Wed, 15-Aug-2018 7:56pm CDT
Partly cloudy
Partly cloudy
 Wind from S
Wind: S 8 mph , 13 km/h
Temperature: 75°F , 24°C
Dew Point: 70°F , 21°C
Humidity: 83%
Barometer: 29.92 inHg , 1013.2 hPa
Clouds: Partly cloudy
Visibility: 10 miles , 16 km
Cloud details: Partly cloudy 2000 ft
2018/08/16 00:56 KBMI 160056Z 17007KT 10SM SCT020 24/21 A2992 RMK AO2 SLP144 T02390211
KDEC - Decatur, Illinois, USA
Distance from station: SW 37mi, 60km
Updated: Wed, 15-Aug-2018 7:54pm CDT
Mostly cloudy
Mostly cloudy
 Wind from S
Wind: S 7 mph , 11 km/h
Temperature: 73°F , 23°C
Dew Point: 73°F , 23°C
Humidity: 100%
Barometer: 29.90 inHg , 1012.5 hPa
Clouds: Mostly cloudy
Visibility: 10 miles , 16 km
Cloud details: Few Clouds 2700 ft
Partly cloudy 4400 ft
Mostly cloudy 6000 ft
2018/08/16 00:54 KDEC 160054Z 19006KT 10SM FEW027 SCT044 BKN060 23/23 A2990 RMK AO2 RAB15E35 SLP121 P0003 T02330233
 
KDNV - Danville, Illinois, USA
Distance from station: E 40mi, 65km
Updated: Wed, 15-Aug-2018 7:55pm CDT
Overcast
Overcast
 Wind from SSE
Wind: SSE 3 mph , 6 km/h
Temperature: 72°F , 22°C
Dew Point: 72°F , 22°C
Humidity: 100%
Barometer: 29.91 inHg , 1012.9 hPa
Clouds: Overcast
Visibility: 10 miles , 16 km
Cloud details: Partly cloudy 4100 ft
Mostly cloudy 7000 ft
Overcast 8500 ft
2018/08/16 00:55 KDNV 160055Z AUTO 16003KT 10SM SCT041 BKN070 OVC085 22/22 A2991 RMK AO2 T02200220 PWINO
KAAA - Lincoln, Illinois, USA
Distance from station: W 52mi, 83km
Updated: Wed, 15-Aug-2018 7:55pm CDT
Mostly cloudy
Mostly cloudy
 Wind from calm
Wind: Calm
Temperature: 75°F , 24°C
Dew Point: 73°F , 23°C
Humidity: 94%
Barometer: 29.90 inHg , 1012.5 hPa
Clouds: Mostly cloudy
Visibility: 10 miles , 16 km
Cloud details: Mostly cloudy 6000 ft
2018/08/16 00:55 KAAA 160055Z AUTO 00000KT 10SM BKN060 24/23 A2990 RMK AO2 T02430228
 
KMTO - Mattoon/Charlest, Illinois, USA
Distance from station: S 52mi, 84km
Updated: Wed, 15-Aug-2018 7:53pm CDT
Overcast
Overcast
 Wind from S
Wind: S 6 mph , 9 km/h
Temperature: 73°F , 23°C
Dew Point: 72°F , 22°C
Humidity: 94%
Barometer: 29.92 inHg , 1013.2 hPa
Clouds: Overcast
Visibility: 10 miles , 16 km
Cloud details: Few Clouds 1800 ft
Mostly cloudy 4600 ft
Overcast 10000 ft
2018/08/16 00:53 KMTO 160053Z AUTO 17005KT 10SM FEW018 BKN046 OVC100 23/22 A2992 RMK AO2 SLP126 T02330217
KSPI - Springfield, Illinois, USA
Distance from station: WSW 74mi, 120km
Updated: Wed, 15-Aug-2018 7:52pm CDT
Overcast
Overcast
 Wind from S
Wind: S 6 mph , 9 km/h
Temperature: 79°F , 26°C
Dew Point: 73°F , 23°C
Humidity: 84%
Barometer: 29.89 inHg , 1012.2 hPa
Clouds: Overcast
Visibility: 10 miles , 16 km
Cloud details: Mostly cloudy 2000 ft
Overcast 7000 ft
2018/08/16 00:52 KSPI 160052Z 17005KT 10SM BKN020 OVC070 26/23 A2989 RMK AO2 SLP118 T02560233
 
KLAF - Lafayette, Indiana, USA
Distance from station: E 76mi, 123km
Updated: Wed, 15-Aug-2018 8:01pm CDT
Overcast
Overcast
 Wind from SE
Wind: SE 3 mph , 6 km/h
Temperature: 72°F , 22°C
Dew Point: 70°F , 21°C
Humidity: 94%
Barometer: 29.94 inHg , 1013.9 hPa
Clouds: Overcast
Visibility: 8 miles , 13 km
Cloud details: Few Clouds 2200 ft
Partly cloudy 4500 ft
Overcast 7000 ft
2018/08/16 01:01 KLAF 160101Z AUTO 13003KT 8SM FEW022 SCT045 OVC070 22/21 A2994 RMK AO2 T02170211
KPIA - Peoria, Illinois, USA
Distance from station: WNW 76mi, 123km
Updated: Wed, 15-Aug-2018 7:54pm CDT
Mostly cloudy
Mostly cloudy
 Wind from SE
Wind: SE 5 mph , 7 km/h
Temperature: 75°F , 24°C
Dew Point: 72°F , 22°C
Humidity: 89%
Barometer: 29.89 inHg , 1012.2 hPa
Clouds: Mostly cloudy
Visibility: 10 miles , 16 km
Cloud details: Few Clouds 6000 ft
Partly cloudy 7500 ft
Mostly cloudy 12000 ft
2018/08/16 00:54 KPIA 160054Z 14004KT 10SM FEW060 SCT075 BKN120 24/22 A2989 RMK AO2 SLP117 T02390217
 
KHUF - Terre Haute, Indiana, USA
Distance from station: SE 77mi, 124km
Updated: Wed, 15-Aug-2018 7:53pm CDT
Overcast
Overcast
 Wind from SSW
Wind: SSW 7 mph , 11 km/h
Temperature: 73°F , 23°C
Dew Point: 70°F , 21°C
Humidity: 89%
Barometer: 29.94 inHg , 1013.9 hPa
Clouds: Overcast
Visibility: 10 miles , 16 km
Cloud details: Few Clouds 1700 ft
Partly cloudy 9000 ft
Overcast 11000 ft
2018/08/16 00:53 KHUF 160053Z 20006KT 10SM FEW017 SCT090 OVC110 23/21 A2994 RMK AO2 RAB08E17 SLP133 P0000 T02330211
K1H2 - Effingham, Illinois, USA
Distance from station: S 80mi, 129km
Updated: Wed, 15-Aug-2018 7:55pm CDT
Overcast
Overcast
 Wind from calm
Wind: Calm
Temperature: 73°F , 23°C
Dew Point: 73°F , 23°C
Humidity: 100%
Barometer: 29.94 inHg , 1013.9 hPa
Clouds: Overcast
Visibility: 10 miles , 16 km
Cloud details: Overcast 3500 ft
2018/08/16 00:55 K1H2 160055Z AUTO 00000KT 10SM OVC035 23/23 A2994 RMK AO2 T02320225
 
KIND - Indianapolis, Indiana, USA
Distance from station: ESE 117mi, 133km
Updated: Wed, 15-Aug-2018 7:54pm CDT
Light rain, Mist, Overcast
Light rain, Mist, Overcast
 Wind from SE
Wind: SE 9 mph , 15 km/h
Temperature: 72°F , 22°C
Dew Point: 72°F , 22°C
Humidity: 100%
Barometer: 29.97 inHg , 1014.9 hPa
Summary: Light rain, Mist
Clouds: Overcast
Visibility: 6 miles , 10 km
Cloud details: Partly cloudy 900 ft
Overcast 1500 ft
2018/08/16 00:54 KIND 160054Z 14008KT 6SM -RA BR SCT009 OVC015 22/22 A2997 RMK AO2 SLP141 P0000 T02220217
KORD - Chicago O'hare, Illinois, USA
Distance from station: N 126mi, 203km
Updated: Wed, 15-Aug-2018 7:51pm CDT
Nearby thunderstorm, Light rain, Overcast
Nearby thunderstorm, Light rain, Overcast
 Wind from SW
Wind: SW 5 mph , 7 km/h
Temperature: 79°F , 26°C
Dew Point: 72°F , 22°C
Humidity: 79%
Barometer: 29.91 inHg , 1012.9 hPa
Summary: Nearby thunderstorm, Light rain
Clouds: Overcast
Visibility: 10 miles , 16 km
Cloud details: Mostly cloudy 2700 ft
Mostly cloudy 4000 ft
Overcast 7000 ft
2018/08/16 00:51 KORD 160051Z 22004KT 10SM VCTS -RA BKN027 BKN040 OVC070 26/22 A2991 RMK AO2 LTG DSNT W AND NW RAB25 TSE16 SLP123 P0001 T02560217
 
KSTL - St. Louis, Missouri, USA
Distance from station: SW 150mi, 185km
Updated: Wed, 15-Aug-2018 7:51pm CDT
Mostly cloudy
Mostly cloudy
 Wind from S
Wind: S 6 mph , 9 km/h
Temperature: 75°F , 24°C
Dew Point: 73°F , 23°C
Humidity: 94%
Barometer: 29.90 inHg , 1012.5 hPa
Clouds: Mostly cloudy
Visibility: 10 miles , 16 km
Cloud details: Few Clouds 1500 ft
Few Clouds 4000 ft
Mostly cloudy 9500 ft
Mostly cloudy 25000 ft
2018/08/16 00:51 KSTL 160051Z 18005KT 10SM FEW015 FEW040 BKN095 BKN250 24/23 A2990 RMK AO2 LTG DSNT NE SLP114 T02440233